Time;durP1;ratioP1;P1;durP2;ratioP2;P2;SDS_P1;SDS_P2;PMS_P1;PMS_P2;Temp;Humidity;BMP_temperature;BMP_pressure;BME280_temperature;BME280_humidity;BME280_pressure;Samples;Min_cycle;Max_cycle;Signal;HPM_P1;HPM_P2
2022/03/02 00:01:14;;;;;;;4.45;3.28;;;20.30;53.00;;;;;;4477676;32;20167;-76
2022/03/02 00:03:41;;;;;;;4.75;3.20;;;20.20;53.00;;;;;;4477616;32;20081;-77
2022/03/02 00:06:09;;;;;;;4.13;3.03;;;20.20;53.00;;;;;;4477546;32;20419;-77
2022/03/02 00:08:36;;;;;;;6.63;3.08;;;20.20;53.00;;;;;;4477612;32;20220;-77
2022/03/02 00:11:03;;;;;;;3.70;2.90;;;20.20;53.10;;;;;;4477426;32;20142;-77
2022/03/02 00:13:29;;;;;;;3.78;2.83;;;20.20;53.10;;;;;;4477492;32;20081;-77
2022/03/02 00:15:55;;;;;;;3.45;2.72;;;20.10;53.10;;;;;;4463454;32;20081;-77
2022/03/02 00:18:22;;;;;;;3.83;2.80;;;20.10;53.10;;;;;;4477560;32;20107;-77
2022/03/02 00:20:48;;;;;;;4.25;2.80;;;20.10;53.10;;;;;;4477561;32;20396;-77
2022/03/02 00:23:14;;;;;;;4.53;2.90;;;20.10;53.10;;;;;;4477343;32;20512;-76
2022/03/02 00:25:40;;;;;;;4.78;3.30;;;20.00;53.10;;;;;;4477332;32;20084;-77
2022/03/02 00:28:06;;;;;;;4.85;2.97;;;20.00;53.10;;;;;;4470970;32;20607;-77
2022/03/02 00:30:32;;;;;;;4.07;3.00;;;20.00;53.10;;;;;;4477128;32;20065;-77
2022/03/02 00:32:59;;;;;;;3.65;2.80;;;20.00;53.20;;;;;;4477231;32;20089;-77
2022/03/02 00:35:26;;;;;;;4.18;3.17;;;20.00;53.20;;;;;;4477184;32;20553;-76
2022/03/02 00:37:52;;;;;;;4.55;2.95;;;20.00;53.20;;;;;;4477014;32;20116;-76
2022/03/02 00:40:18;;;;;;;4.43;2.92;;;20.00;53.20;;;;;;4476829;32;20408;-76
2022/03/02 00:42:44;;;;;;;4.50;2.92;;;20.00;53.20;;;;;;4462950;32;20096;-77
2022/03/02 00:45:11;;;;;;;4.90;3.00;;;19.90;53.20;;;;;;4476751;32;20231;-76
2022/03/02 00:47:37;;;;;;;4.00;3.13;;;19.90;53.20;;;;;;4477294;32;20158;-77
2022/03/02 00:50:04;;;;;;;4.55;3.28;;;19.90;53.20;;;;;;4476969;32;20089;-77
2022/03/02 00:52:31;;;;;;;4.38;2.90;;;19.90;53.20;;;;;;4476973;32;20218;-77
2022/03/02 00:54:57;;;;;;;5.07;3.05;;;19.90;53.20;;;;;;4477110;32;20073;-77
2022/03/02 00:57:23;;;;;;;4.95;3.25;;;19.90;53.20;;;;;;4463006;32;20077;-76
2022/03/02 00:59:49;;;;;;;4.10;3.20;;;19.90;53.20;;;;;;4476957;32;20088;-76
2022/03/02 01:02:14;;;;;;;4.50;2.83;;;19.80;53.20;;;;;;4476848;32;20508;-76
2022/03/02 01:04:40;;;;;;;3.65;2.60;;;19.80;53.20;;;;;;4476645;32;20069;-76
2022/03/02 01:07:06;;;;;;;4.65;3.00;;;19.80;53.20;;;;;;4476903;32;20085;-76
2022/03/02 01:09:32;;;;;;;6.72;3.03;;;19.80;53.20;;;;;;4462258;32;20170;-77
2022/03/02 01:11:58;;;;;;;4.95;3.10;;;19.80;53.20;;;;;;4476651;32;20321;-76
2022/03/02 01:14:24;;;;;;;5.00;3.30;;;19.80;53.20;;;;;;4476568;32;20084;-77
2022/03/02 01:16:50;;;;;;;4.80;3.35;;;19.80;53.20;;;;;;4462746;32;20235;-77
2022/03/02 01:19:16;;;;;;;4.30;2.70;;;19.70;53.20;;;;;;4462764;32;20150;-77
2022/03/02 01:21:42;;;;;;;3.90;2.80;;;19.70;53.20;;;;;;4476702;32;20074;-77
2022/03/02 01:24:08;;;;;;;4.35;3.10;;;19.70;53.20;;;;;;4476770;32;20085;-77
2022/03/02 01:26:36;;;;;;;3.42;2.78;;;19.70;53.20;;;;;;4476287;32;20073;-76
2022/03/02 01:29:03;;;;;;;5.15;3.45;;;19.70;53.20;;;;;;4476277;32;20097;-77
2022/03/02 01:31:29;;;;;;;4.35;3.03;;;19.70;54.10;;;;;;4476379;32;20519;-76
2022/03/02 01:33:55;;;;;;;4.20;3.22;;;19.70;53.20;;;;;;4462390;32;20407;-77
2022/03/02 01:36:22;;;;;;;4.00;2.90;;;19.60;53.20;;;;;;4476839;32;20101;-76
2022/03/02 01:38:48;;;;;;;4.18;3.05;;;19.60;53.20;;;;;;4476562;32;20442;-77
2022/03/02 01:41:16;;;;;;;3.50;2.92;;;19.60;53.20;;;;;;4476565;32;20694;-76
2022/03/02 01:43:43;;;;;;;4.28;3.10;;;19.60;53.20;;;;;;4476649;32;20081;-77
2022/03/02 01:46:10;;;;;;;4.63;3.15;;;19.60;53.20;;;;;;4476496;32;20588;-76
2022/03/02 01:48:36;;;;;;;3.83;2.88;;;19.60;53.20;;;;;;4476358;32;20491;-76
2022/03/02 01:51:03;;;;;;;5.15;3.03;;;19.60;53.20;;;;;;4476275;32;20128;-76
2022/03/02 01:53:31;;;;;;;3.78;2.85;;;19.60;53.20;;;;;;4476323;32;20069;-77
2022/03/02 01:55:58;;;;;;;5.57;3.45;;;19.60;53.20;;;;;;4476218;32;20077;-76
2022/03/02 01:58:25;;;;;;;3.97;2.92;;;19.50;53.10;;;;;;4476492;32;20073;-76
2022/03/02 02:00:52;;;;;;;4.75;3.38;;;19.50;53.20;;;;;;4476377;32;20268;-77
2022/03/02 02:03:19;;;;;;;4.47;3.00;;;19.50;53.20;;;;;;4476467;32;20082;-77
2022/03/02 02:05:45;;;;;;;4.65;2.88;;;19.50;53.20;;;;;;4476486;32;20077;-72
2022/03/02 02:08:11;;;;;;;4.00;3.00;;;19.50;53.20;;;;;;4476063;32;20121;-77
2022/03/02 02:10:37;;;;;;;5.60;3.20;;;19.50;53.20;;;;;;4475868;32;20054;-77
2022/03/02 02:13:04;;;;;;;3.17;2.45;;;19.50;53.20;;;;;;4476228;32;20095;-76
2022/03/02 02:15:30;;;;;;;4.03;3.00;;;19.50;53.20;;;;;;4476133;32;20069;-76
2022/03/02 02:17:56;;;;;;;3.90;2.95;;;19.50;53.20;;;;;;4477965;32;20076;-77
2022/03/02 02:20:23;;;;;;;3.58;3.08;;;19.40;53.20;;;;;;4465272;32;20427;-76
2022/03/02 02:22:49;;;;;;;4.25;3.00;;;19.40;53.20;;;;;;4478897;32;20228;-76
2022/03/02 02:25:15;;;;;;;4.18;2.95;;;19.50;53.20;;;;;;4465174;32;20163;-76
2022/03/02 02:27:44;;;;;;;4.38;3.35;;;19.40;53.20;;;;;;4464817;32;20102;-76
2022/03/02 02:30:11;;;;;;;4.47;3.28;;;19.40;53.20;;;;;;4479294;32;20190;-76
2022/03/02 02:32:38;;;;;;;3.55;3.00;;;19.40;53.20;;;;;;4478936;32;20092;-76
2022/03/02 02:35:06;;;;;;;4.13;3.03;;;19.40;53.20;;;;;;4478962;32;20100;-76
2022/03/02 02:37:34;;;;;;;3.28;2.80;;;19.40;53.20;;;;;;4479061;32;20526;-76
2022/03/02 02:40:05;;;;;;;3.97;3.13;;;19.40;53.20;;;;;;4478955;32;20078;-76
2022/03/02 02:42:31;;;;;;;4.85;3.55;;;19.40;53.20;;;;;;4464582;32;20090;-76
2022/03/02 02:44:57;;;;;;;4.07;3.13;;;19.40;53.20;;;;;;4478978;32;20065;-77
2022/03/02 02:47:23;;;;;;;3.70;3.05;;;19.40;53.20;;;;;;4478850;32;20100;-76
2022/03/02 02:49:49;;;;;;;3.88;3.20;;;19.40;53.30;;;;;;4464778;32;20424;-76
2022/03/02 02:52:15;;;;;;;3.22;2.90;;;19.30;53.20;;;;;;4478744;32;20227;-76
2022/03/02 02:54:42;;;;;;;3.63;3.00;;;19.30;53.20;;;;;;4478614;32;20272;-76
2022/03/02 02:57:08;;;;;;;4.18;3.10;;;19.30;53.20;;;;;;4464231;32;20092;-76
2022/03/02 02:59:34;;;;;;;4.63;2.83;;;19.30;53.20;;;;;;4478440;32;20632;-76
2022/03/02 03:02:00;;;;;;;4.30;3.00;;;19.30;53.30;;;;;;4478443;32;20557;-77
2022/03/02 03:04:26;;;;;;;3.40;3.00;;;19.30;53.30;;;;;;4478572;32;20175;-76
2022/03/02 03:06:52;;;;;;;4.50;3.15;;;19.20;53.20;;;;;;4464391;32;20097;-76
2022/03/02 03:09:18;;;;;;;4.00;2.85;;;19.20;53.20;;;;;;4478472;32;20088;-76
2022/03/02 03:11:44;;;;;;;4.35;2.78;;;19.20;53.20;;;;;;4478018;32;20131;-76
2022/03/02 03:14:12;;;;;;;3.83;2.90;;;19.20;53.20;;;;;;4478405;32;20104;-76
2022/03/02 03:16:42;;;;;;;4.03;3.10;;;19.20;53.20;;;;;;4478332;32;20089;-76
2022/03/02 03:19:08;;;;;;;4.88;2.78;;;19.20;53.20;;;;;;4464241;32;20082;-76
2022/03/02 03:21:34;;;;;;;3.60;3.00;;;19.20;53.30;;;;;;4478275;32;20712;-76
2022/03/02 03:24:00;;;;;;;4.25;3.20;;;19.20;53.30;;;;;;4464382;32;20081;-76
2022/03/02 03:26:26;;;;;;;4.45;2.78;;;19.20;53.30;;;;;;4478137;32;20069;-76
2022/03/02 03:28:52;;;;;;;3.42;2.75;;;19.20;53.30;;;;;;4477954;32;20093;-76
2022/03/02 03:31:18;;;;;;;4.63;3.05;;;19.20;53.30;;;;;;4464044;32;20079;-76
2022/03/02 03:33:45;;;;;;;3.65;3.15;;;19.10;53.20;;;;;;4477861;32;20073;-75
2022/03/02 03:36:11;;;;;;;3.92;3.05;;;19.10;53.20;;;;;;4477976;32;20077;-76
2022/03/02 03:38:37;;;;;;;4.28;3.22;;;19.10;53.20;;;;;;4478384;32;20162;-77
2022/03/02 03:41:03;;;;;;;3.28;2.90;;;19.10;53.20;;;;;;4464115;32;20450;-76
2022/03/02 03:43:28;;;;;;;4.57;3.17;;;19.10;53.20;;;;;;4478027;32;20112;-76
2022/03/02 03:45:54;;;;;;;4.22;3.08;;;19.10;53.20;;;;;;4478218;32;20187;-76
2022/03/02 03:48:20;;;;;;;3.30;2.90;;;19.10;53.20;;;;;;4477903;32;20065;-76
2022/03/02 03:50:46;;;;;;;4.07;3.03;;;19.10;53.20;;;;;;4463685;32;20487;-76
2022/03/02 03:53:13;;;;;;;4.47;3.03;;;19.10;53.20;;;;;;4477943;32;20113;-76
2022/03/02 03:55:39;;;;;;;4.00;3.20;;;19.00;53.20;;;;;;4478031;32;20099;-76
2022/03/02 03:58:06;;;;;;;3.40;2.95;;;19.00;53.20;;;;;;4477659;32;20081;-76
2022/03/02 04:00:32;;;;;;;3.90;2.95;;;19.00;53.20;;;;;;4477423;32;20113;-76
2022/03/02 04:02:58;;;;;;;3.15;2.85;;;19.00;53.20;;;;;;4477709;32;20286;-76
2022/03/02 04:05:24;;;;;;;3.25;2.80;;;19.00;53.20;;;;;;4463372;32;20502;-76
2022/03/02 04:07:50;;;;;;;3.97;3.03;;;19.00;53.20;;;;;;4463347;32;20069;-76
2022/03/02 04:10:17;;;;;;;4.65;2.90;;;19.00;53.20;;;;;;4477235;32;20170;-76
2022/03/02 04:12:45;;;;;;;4.28;3.03;;;19.00;53.20;;;;;;4477400;32;20089;-76
2022/03/02 04:15:11;;;;;;;3.17;2.67;;;19.00;53.20;;;;;;4477542;32;20199;-76
2022/03/02 04:17:37;;;;;;;3.47;2.78;;;19.00;53.20;;;;;;4477456;32;20395;-76
2022/03/02 04:20:05;;;;;;;3.95;3.00;;;18.90;53.20;;;;;;4477716;32;20128;-76
2022/03/02 04:22:31;;;;;;;3.97;2.90;;;18.90;53.10;;;;;;4463335;32;20089;-76
2022/03/02 04:24:57;;;;;;;4.05;2.92;;;18.90;53.10;;;;;;4477534;32;20058;-76
2022/03/02 04:27:22;;;;;;;5.05;3.33;;;18.90;53.10;;;;;;4477338;32;20147;-76
2022/03/02 04:29:48;;;;;;;3.83;2.92;;;18.90;53.10;;;;;;4477255;32;20503;-76
2022/03/02 04:32:14;;;;;;;3.97;3.13;;;18.90;53.10;;;;;;4477276;32;20147;-76
2022/03/02 04:34:41;;;;;;;3.45;3.05;;;18.90;53.10;;;;;;4476932;32;20211;-76
2022/03/02 04:37:07;;;;;;;4.72;3.30;;;18.80;53.10;;;;;;4470672;32;20187;-76
2022/03/02 04:39:32;;;;;;;3.75;3.03;;;18.80;53.10;;;;;;4476729;32;20077;-76
2022/03/02 04:41:58;;;;;;;4.35;3.13;;;18.90;53.10;;;;;;4477192;32;20158;-76
2022/03/02 04:44:24;;;;;;;4.68;3.22;;;18.80;53.10;;;;;;4477323;32;20069;-76
2022/03/02 04:46:51;;;;;;;3.85;3.13;;;18.80;53.10;;;;;;4477147;32;20391;-76
2022/03/02 04:49:20;;;;;;;4.13;3.38;;;18.80;53.10;;;;;;4476930;32;20081;-76
2022/03/02 04:51:47;;;;;;;4.75;3.20;;;18.80;53.10;;;;;;4476787;32;20166;-76
2022/03/02 04:55:05;;;;;;;3.50;2.80;;;18.80;53.10;;;;;;4476509;32;20501;-74
2022/03/02 04:57:05;;;;;;;3.97;2.90;;;18.80;53.10;;;;;;4476977;32;20211;-76
2022/03/02 04:59:32;;;;;;;3.60;3.10;;;18.80;53.10;;;;;;4476978;32;20081;-76
2022/03/02 05:01:58;;;;;;;4.30;3.22;;;18.80;53.10;;;;;;4476818;32;20089;-76
2022/03/02 05:04:24;;;;;;;3.80;3.10;;;18.80;53.10;;;;;;4476646;32;20084;-75
2022/03/02 05:06:50;;;;;;;4.38;3.30;;;18.80;53.10;;;;;;4462885;32;20171;-76
2022/03/02 05:09:16;;;;;;;3.88;2.90;;;18.70;53.10;;;;;;4476484;32;20081;-76
2022/03/02 05:11:42;;;;;;;3.67;3.17;;;18.70;53.10;;;;;;4476375;32;20133;-76
2022/03/02 05:14:08;;;;;;;3.90;3.13;;;18.70;53.10;;;;;;4476759;32;20228;-76
2022/03/02 05:16:34;;;;;;;3.50;2.90;;;18.70;53.00;;;;;;4476608;32;20507;-76
2022/03/02 05:18:59;;;;;;;4.47;3.20;;;18.70;53.00;;;;;;4476830;32;20294;-76
2022/03/02 05:21:25;;;;;;;3.92;3.00;;;18.70;53.00;;;;;;4476701;32;20129;-76
2022/03/02 05:23:51;;;;;;;4.78;3.13;;;18.70;53.00;;;;;;4476907;32;20127;-76
2022/03/02 05:26:17;;;;;;;3.20;2.90;;;18.70;53.00;;;;;;4476475;32;20407;-75
2022/03/02 05:28:43;;;;;;;4.65;3.30;;;18.70;53.00;;;;;;4462534;32;20227;-76
2022/03/02 05:31:08;;;;;;;4.43;3.58;;;18.60;53.00;;;;;;4476659;32;20070;-76
2022/03/02 05:33:36;;;;;;;3.45;2.92;;;18.70;53.00;;;;;;4476472;32;20078;-76
2022/03/02 05:36:02;;;;;;;3.42;2.90;;;18.60;53.00;;;;;;4476403;32;20101;-75
2022/03/02 05:38:27;;;;;;;3.03;2.72;;;18.60;53.00;;;;;;4476113;32;20495;-76
2022/03/02 05:40:53;;;;;;;4.35;3.20;;;18.60;52.90;;;;;;4462407;32;20129;-75
2022/03/02 05:43:19;;;;;;;3.50;2.95;;;18.60;52.90;;;;;;4476636;32;20485;-76
2022/03/02 05:45:45;;;;;;;3.33;2.80;;;18.60;52.90;;;;;;4476352;32;20070;-76
2022/03/02 05:48:10;;;;;;;4.30;2.95;;;18.60;52.90;;;;;;4476708;32;20076;-76
2022/03/02 05:50:36;;;;;;;3.75;2.78;;;18.60;52.90;;;;;;4462486;32;20167;-76
2022/03/02 05:53:03;;;;;;;4.15;3.05;;;18.60;52.90;;;;;;4479409;32;20610;-76
2022/03/02 05:55:29;;;;;;;3.67;3.05;;;18.60;52.90;;;;;;4479569;32;20158;-76
2022/03/02 05:57:55;;;;;;;4.03;2.95;;;18.60;52.90;;;;;;4479640;32;20081;-76
2022/03/02 06:00:21;;;;;;;3.97;3.15;;;18.50;52.90;;;;;;4479441;32;20096;-76
2022/03/02 06:02:47;;;;;;;3.42;2.83;;;18.60;52.90;;;;;;4479174;32;20215;-76
2022/03/02 06:05:14;;;;;;;4.20;3.20;;;18.60;52.90;;;;;;4479769;32;20469;-75
2022/03/02 06:07:40;;;;;;;4.30;3.00;;;18.50;52.90;;;;;;4479286;32;20065;-76
2022/03/02 06:10:06;;;;;;;3.63;3.17;;;18.50;52.90;;;;;;4479225;32;20143;-76
2022/03/02 06:12:33;;;;;;;4.05;3.22;;;18.50;52.90;;;;;;4479269;32;20133;-76
2022/03/02 06:14:59;;;;;;;3.67;3.10;;;18.50;52.90;;;;;;4479395;32;20653;-76
2022/03/02 06:17:26;;;;;;;3.75;2.97;;;18.50;52.90;;;;;;4479257;32;20537;-75
2022/03/02 06:19:52;;;;;;;4.45;3.22;;;18.50;52.90;;;;;;4479382;32;20121;-76
2022/03/02 06:22:23;;;;;;;3.95;3.08;;;18.50;52.90;;;;;;4479299;32;20174;-72
2022/03/02 06:24:51;;;;;;;3.78;2.95;;;18.50;52.90;;;;;;4478933;32;20088;-76
2022/03/02 06:27:20;;;;;;;4.47;3.33;;;18.40;52.80;;;;;;4479191;32;20178;-72
2022/03/02 06:29:46;;;;;;;4.28;3.22;;;18.50;52.90;;;;;;4479178;32;20089;-76
2022/03/02 06:32:12;;;;;;;3.88;3.00;;;18.50;52.80;;;;;;4464944;32;20657;-76
2022/03/02 06:34:39;;;;;;;3.95;2.95;;;18.40;52.80;;;;;;4478839;32;20095;-76
2022/03/02 06:37:06;;;;;;;3.95;2.95;;;18.40;52.80;;;;;;4478916;32;20069;-76
2022/03/02 06:39:31;;;;;;;4.22;2.90;;;18.40;52.80;;;;;;4478856;32;20081;-76
2022/03/02 06:42:21;;;;;;;3.78;3.00;;;18.40;52.80;;;;;;4478454;32;20065;-76
2022/03/02 06:44:55;;;;;;;3.70;3.35;;;18.40;52.70;;;;;;4479059;32;20081;-76
2022/03/02 06:47:31;;;;;;;3.78;3.00;;;18.40;52.80;;;;;;4465168;32;20216;-77
2022/03/02 06:50:12;;;;;;;3.90;3.03;;;18.40;52.70;;;;;;4464751;32;20167;-76
2022/03/02 06:52:42;;;;;;;3.60;3.08;;;18.40;52.70;;;;;;4478519;32;20073;-76
2022/03/02 06:55:13;;;;;;;3.50;2.80;;;18.40;52.80;;;;;;4478341;32;20224;-76
2022/03/02 06:57:40;;;;;;;3.72;2.90;;;18.40;52.80;;;;;;4478418;32;20163;-76
2022/03/02 07:00:16;;;;;;;3.25;2.90;;;18.40;52.80;;;;;;4478707;32;20290;-76
2022/03/02 07:02:59;;;;;;;4.07;3.00;;;18.40;52.80;;;;;;4478157;32;20150;-76
2022/03/02 07:05:26;;;;;;;3.40;2.50;;;18.40;52.70;;;;;;4478838;32;20136;-76
2022/03/02 07:07:52;;;;;;;3.45;2.97;;;18.30;52.70;;;;;;4478969;32;20098;-77
2022/03/02 07:10:18;;;;;;;3.97;2.67;;;18.30;52.70;;;;;;4478220;32;20164;-75
2022/03/02 07:12:44;;;;;;;4.18;3.00;;;18.30;52.70;;;;;;4477962;32;20092;-77
2022/03/02 07:15:11;;;;;;;4.22;3.03;;;18.30;52.60;;;;;;4477882;32;20069;-76
2022/03/02 07:17:37;;;;;;;4.00;3.20;;;18.30;52.70;;;;;;4478915;32;20081;-76
2022/03/02 07:20:09;;;;;;;4.70;3.08;;;18.30;52.70;;;;;;4478567;32;20097;-77
2022/03/02 07:22:40;;;;;;;3.38;3.00;;;18.30;52.70;;;;;;4478173;32;20215;-77
2022/03/02 07:25:29;;;;;;;3.78;3.10;;;18.30;52.70;;;;;;4478433;32;20499;-76
2022/03/02 07:27:58;;;;;;;4.22;2.95;;;18.30;52.60;;;;;;4463911;32;20092;-74
2022/03/02 07:30:26;;;;;;;6.20;3.73;;;18.30;52.80;;;;;;4478041;32;20519;-77
2022/03/02 07:32:56;;;;;;;3.78;3.15;;;18.20;52.70;;;;;;4477969;32;20201;-76
2022/03/02 07:35:24;;;;;;;7.68;4.53;;;18.20;52.70;;;;;;4478064;32;20231;-75
2022/03/02 07:37:52;;;;;;;6.60;4.78;;;18.20;52.70;;;;;;4477954;32;20211;-73
2022/03/02 07:40:19;;;;;;;5.20;4.18;;;18.30;52.70;;;;;;4478294;32;20605;-76
2022/03/02 07:42:45;;;;;;;7.13;4.80;;;18.30;52.60;;;;;;4478161;32;20100;-78
2022/03/02 07:45:12;;;;;;;5.32;4.50;;;18.30;52.60;;;;;;4477652;32;20507;-76
2022/03/02 07:47:38;;;;;;;6.07;4.78;;;18.30;52.40;;;;;;4477715;32;20058;-76
2022/03/02 07:50:04;;;;;;;5.82;4.57;;;18.40;52.40;;;;;;4477724;32;20506;-76
2022/03/02 07:52:34;;;;;;;7.57;4.68;;;18.50;52.20;;;;;;4477082;32;20108;-75
2022/03/02 07:55:09;;;;;;;9.90;4.35;;;18.60;52.00;;;;;;4477691;32;20082;-75
2022/03/02 07:57:37;;;;;;;6.22;4.40;;;18.80;51.80;;;;;;4477788;32;20180;-76
2022/03/02 08:00:04;;;;;;;6.38;4.18;;;18.90;51.50;;;;;;4477722;32;20179;-77
2022/03/02 08:02:31;;;;;;;5.82;4.30;;;19.00;51.10;;;;;;4477537;32;20088;-77
2022/03/02 08:04:58;;;;;;;10.20;4.20;;;19.20;51.00;;;;;;4477095;32;20253;-74
2022/03/02 08:07:24;;;;;;;6.43;3.70;;;19.30;50.70;;;;;;4477335;32;20124;-77
2022/03/02 08:09:52;;;;;;;5.63;4.18;;;19.40;50.40;;;;;;4477070;32;20597;-78
2022/03/02 08:12:26;;;;;;;4.93;3.92;;;19.50;50.20;;;;;;4462918;32;20128;-77
2022/03/02 08:14:52;;;;;;;5.82;3.90;;;19.70;50.00;;;;;;4477106;32;20096;-76
2022/03/02 08:17:19;;;;;;;4.47;3.50;;;19.80;49.70;;;;;;4477378;32;20207;-76
2022/03/02 08:19:49;;;;;;;7.53;3.85;;;19.90;49.40;;;;;;4476990;32;20095;-77
2022/03/02 08:22:18;;;;;;;5.03;3.40;;;20.00;49.30;;;;;;4477257;32;20125;-76
2022/03/02 08:25:12;;;;;;;4.90;3.53;;;20.10;49.00;;;;;;4477157;32;20239;-76
2022/03/02 08:27:41;;;;;;;4.88;3.38;;;20.30;48.80;;;;;;4477283;32;20207;-76
2022/03/02 08:30:09;;;;;;;5.07;3.33;;;20.40;48.50;;;;;;4477485;32;20519;-77
2022/03/02 08:32:45;;;;;;;6.00;3.10;;;20.60;48.30;;;;;;4476940;32;20388;-76
2022/03/02 08:35:19;;;;;;;4.68;3.35;;;20.70;48.00;;;;;;4579333;31;20115;-61
2022/03/02 08:37:46;;;;;;;5.30;3.28;;;20.80;47.80;;;;;;4576725;31;20106;-60
2022/03/02 08:40:13;;;;;;;5.32;3.25;;;21.00;47.50;;;;;;4561855;31;20119;-60
2022/03/02 08:42:40;;;;;;;4.22;2.97;;;21.10;47.30;;;;;;4577589;31;20087;-60
2022/03/02 08:45:07;;;;;;;6.75;3.58;;;21.20;47.00;;;;;;4575740;31;20122;-60
2022/03/02 08:47:35;;;;;;;4.00;3.08;;;21.30;46.80;;;;;;4577733;31;20131;-60
2022/03/02 08:50:00;;;;;;;3.92;3.17;;;21.40;46.70;;;;;;4575727;31;20134;-60
2022/03/02 08:52:29;;;;;;;8.63;4.22;;;21.40;46.60;;;;;;4562852;31;20481;-60
2022/03/02 08:54:56;;;;;;;12.50;9.02;;;21.50;46.40;;;;;;4576297;31;20086;-59
2022/03/02 08:57:23;;;;;;;15.68;11.68;;;21.50;45.70;;;;;;4575391;31;20186;-60
2022/03/02 08:59:53;;;;;;;16.15;12.30;;;21.40;44.70;;;;;;4575005;31;20140;-60
2022/03/02 09:02:24;;;;;;;17.13;10.70;;;21.30;44.30;;;;;;4575311;31;20153;-61
2022/03/02 09:04:53;;;;;;;21.45;13.10;;;21.20;44.40;;;;;;4576982;31;20137;-60
2022/03/02 09:07:19;;;;;;;18.45;13.48;;;21.20;44.20;;;;;;4575105;31;20123;-59
2022/03/02 09:09:45;;;;;;;19.17;13.05;;;21.10;43.80;;;;;;4576634;31;20107;-59
2022/03/02 09:12:15;;;;;;;18.65;12.80;;;21.10;43.70;;;;;;4576730;31;20126;-60
2022/03/02 09:14:42;;;;;;;15.60;12.05;;;21.00;43.80;;;;;;4575458;31;20119;-60
2022/03/02 09:17:08;;;;;;;16.13;11.35;;;21.00;44.00;;;;;;4576281;31;20131;-60
2022/03/02 09:19:35;;;;;;;16.30;11.65;;;21.00;44.20;;;;;;4575052;31;20182;-60
2022/03/02 09:22:03;;;;;;;14.00;10.68;;;21.00;44.40;;;;;;4577077;31;20127;-60
2022/03/02 09:24:31;;;;;;;14.10;9.13;;;21.00;44.60;;;;;;4560470;31;20542;-60
2022/03/02 09:27:01;;;;;;;14.02;9.20;;;20.90;44.80;;;;;;4576681;31;20135;-59
2022/03/02 09:29:31;;;;;;;12.18;9.05;;;20.90;45.00;;;;;;4576104;31;20225;-60
2022/03/02 09:31:59;;;;;;;10.63;8.05;;;20.90;45.20;;;;;;4574616;31;20111;-60
2022/03/02 09:34:27;;;;;;;12.95;8.40;;;20.90;45.40;;;;;;4576173;31;20122;-60
2022/03/02 09:36:55;;;;;;;12.23;8.07;;;20.90;45.50;;;;;;4574239;31;20131;-60
2022/03/02 09:39:25;;;;;;;12.68;7.18;;;20.90;45.60;;;;;;4552723;31;20132;-60
2022/03/02 09:42:01;;;;;;;12.45;7.03;;;20.90;45.80;;;;;;4559521;31;20123;-60
2022/03/02 09:44:43;;;;;;;9.88;7.00;;;20.90;45.90;;;;;;4558312;31;20259;-61
2022/03/02 09:47:14;;;;;;;10.23;6.32;;;20.90;46.00;;;;;;4549595;31;20193;-60
2022/03/02 09:49:47;;;;;;;10.20;6.97;;;20.90;46.20;;;;;;4547629;31;20186;-59
2022/03/02 09:52:20;;;;;;;9.82;6.15;;;20.90;46.30;;;;;;4549533;31;20178;-59
2022/03/02 09:54:53;;;;;;;8.75;6.20;;;20.90;46.40;;;;;;4534000;31;20192;-60
2022/03/02 09:57:20;;;;;;;10.63;6.20;;;20.90;46.60;;;;;;4548347;31;20179;-59
2022/03/02 09:59:54;;;;;;;10.80;5.65;;;20.90;46.50;;;;;;4548949;31;20099;-59
2022/03/02 10:02:41;;;;;;;7.47;5.60;;;20.90;46.70;;;;;;4547353;31;20131;-59
2022/03/02 10:05:10;;;;;;;14.45;7.70;;;20.90;46.80;;;;;;4549282;31;20131;-59
2022/03/02 10:07:44;;;;;;;13.15;7.18;;;20.90;46.50;;;;;;4547133;31;20068;-60
2022/03/02 10:10:23;;;;;;;10.80;7.45;;;20.90;46.40;;;;;;4546858;31;20139;-60
2022/03/02 10:12:57;;;;;;;13.65;7.82;;;20.80;46.40;;;;;;4546673;31;20135;-60
2022/03/02 10:15:23;;;;;;;13.18;6.82;;;20.90;46.50;;;;;;4546585;31;20127;-60
2022/03/02 10:17:51;;;;;;;11.60;7.15;;;20.80;46.50;;;;;;4548233;31;20127;-60
2022/03/02 10:20:22;;;;;;;11.43;6.25;;;20.80;47.50;;;;;;4546522;31;20139;-60
2022/03/02 10:22:57;;;;;;;10.07;6.30;;;20.80;46.60;;;;;;4546676;31;20531;-60
2022/03/02 10:26:02;;;;;;;8.80;5.88;;;20.80;46.70;;;;;;4548015;31;20277;-59
2022/03/02 10:28:33;;;;;;;;;;;20.80;46.80;;;;;;4476439;32;20136;-59
2022/03/02 10:31:17;;;;;;;7.55;5.30;;;20.80;46.90;;;;;;4482496;32;20033;-60
2022/03/02 10:33:51;;;;;;;;;;;20.80;47.00;;;;;;4524296;31;20258;-59
2022/03/02 10:36:19;;;;;;;8.57;5.47;;;20.80;47.00;;;;;;4546458;31;20165;-60
2022/03/02 10:38:57;;;;;;;9.77;7.20;;;20.90;47.10;;;;;;4547486;31;20127;-60
2022/03/02 10:41:26;;;;;;;10.10;6.30;;;20.80;46.70;;;;;;4546093;31;20592;-60
2022/03/02 10:44:16;;;;;;;10.95;6.32;;;20.80;46.70;;;;;;4547349;31;20120;-60
2022/03/02 10:46:53;;;;;;;11.75;6.35;;;20.80;46.80;;;;;;4548118;31;20123;-60
2022/03/02 10:49:20;;;;;;;8.70;5.75;;;20.80;46.80;;;;;;4546352;31;20143;-60
2022/03/02 10:51:47;;;;;;;7.20;5.47;;;20.90;47.00;;;;;;4547814;31;20492;-60
2022/03/02 10:54:22;;;;;;;8.63;5.57;;;20.80;47.00;;;;;;4545807;31;20139;-60
2022/03/02 10:56:52;;;;;;;8.77;5.70;;;20.80;47.00;;;;;;4547006;31;20609;-59
2022/03/02 10:59:21;;;;;;;14.50;6.45;;;20.80;47.20;;;;;;4548182;31;20091;-59
2022/03/02 11:01:52;;;;;;;14.68;8.35;;;20.80;47.00;;;;;;4546762;31;20664;-61
2022/03/02 11:04:20;;;;;;;13.27;8.52;;;20.80;46.70;;;;;;4548383;31;20268;-61
2022/03/02 11:06:46;;;;;;;11.13;8.23;;;20.80;46.50;;;;;;4546168;31;20142;-62
2022/03/02 11:09:16;;;;;;;14.75;7.93;;;20.70;46.40;;;;;;4548292;31;20135;-62
2022/03/02 11:11:42;;;;;;;16.95;8.75;;;20.80;46.40;;;;;;4546919;31;20131;-61
2022/03/02 11:14:12;;;;;;;14.63;7.68;;;20.70;46.50;;;;;;4532959;31;20147;-62
2022/03/02 11:16:38;;;;;;;10.38;6.90;;;20.70;46.50;;;;;;4548230;31;20083;-62
2022/03/02 11:19:13;;;;;;;13.73;7.22;;;20.70;46.60;;;;;;4546133;31;20135;-62
2022/03/02 11:21:41;;;;;;;17.35;7.43;;;20.70;46.70;;;;;;4548086;31;20148;-63
2022/03/02 11:24:09;;;;;;;11.05;7.90;;;20.80;46.70;;;;;;4546060;31;20132;-62
2022/03/02 11:26:40;;;;;;;11.85;7.10;;;20.80;46.70;;;;;;4519896;31;20131;-62
2022/03/02 11:29:12;;;;;;;11.82;6.50;;;20.80;46.60;;;;;;4546726;31;20080;-62
2022/03/02 11:31:43;;;;;;;15.13;6.90;;;20.80;46.60;;;;;;4546236;31;20179;-62
2022/03/02 11:34:14;;;;;;;13.65;6.60;;;20.80;46.50;;;;;;4547166;31;20143;-62
2022/03/02 11:36:44;;;;;;;10.82;6.63;;;20.80;46.50;;;;;;4517601;31;20115;-62
2022/03/02 11:39:10;;;;;;;11.02;6.20;;;20.80;46.50;;;;;;4546840;31;20167;-63
2022/03/02 11:41:39;;;;;;;11.27;6.20;;;20.80;46.50;;;;;;4532082;31;20123;-62
2022/03/02 11:44:32;;;;;;;11.35;6.40;;;20.80;46.50;;;;;;4532627;31;20276;-63
2022/03/02 11:47:00;;;;;;;9.70;5.72;;;20.80;46.60;;;;;;4547444;31;20091;-64
2022/03/02 11:49:49;;;;;;;13.00;5.85;;;20.90;46.80;;;;;;4545316;31;20636;-62
2022/03/02 11:52:17;;;;;;;9.15;5.88;;;20.90;46.90;;;;;;4546929;31;20261;-61
2022/03/02 11:54:52;;;;;;;9.07;5.88;;;20.80;46.90;;;;;;4546094;31;20092;-61
2022/03/02 11:57:20;;;;;;;9.32;5.72;;;20.90;47.00;;;;;;4531201;31;20158;-61
2022/03/02 11:59:48;;;;;;;14.07;6.07;;;20.80;47.00;;;;;;4546326;31;20083;-62
2022/03/02 12:02:18;;;;;;;11.00;6.00;;;20.90;47.10;;;;;;4543627;31;20123;-61
2022/03/02 12:05:06;;;;;;;9.98;5.22;;;20.90;47.10;;;;;;4533850;31;20138;-60
2022/03/02 12:07:59;;;;;;;7.80;5.13;;;20.90;47.10;;;;;;4544607;31;20186;-61
2022/03/02 12:10:30;;;;;;;9.82;5.65;;;20.90;47.20;;;;;;4544230;31;20138;-62
2022/03/02 12:12:57;;;;;;;10.57;6.47;;;20.90;47.40;;;;;;4532204;31;20134;-62
2022/03/02 12:15:25;;;;;;;13.32;7.60;;;20.90;47.30;;;;;;4530999;31;20269;-61
2022/03/02 12:17:53;;;;;;;10.82;7.00;;;20.90;47.10;;;;;;4532390;31;20668;-61
2022/03/02 12:20:22;;;;;;;9.15;7.32;;;20.80;46.90;;;;;;4546327;31;20184;-60
2022/03/02 12:22:54;;;;;;;16.73;7.60;;;20.80;46.80;;;;;;4546556;31;20257;-60
2022/03/02 12:25:26;;;;;;;12.43;7.55;;;20.80;46.70;;;;;;4547646;31;20475;-61
2022/03/02 12:28:02;;;;;;;14.30;6.93;;;20.80;46.80;;;;;;4545602;31;20216;-61
2022/03/02 12:30:34;;;;;;;13.57;6.80;;;20.80;48.20;;;;;;4547159;31;20257;-60
2022/03/02 12:33:00;;;;;;;12.27;7.00;;;20.80;48.00;;;;;;4545905;31;20600;-60
2022/03/02 12:35:27;;;;;;;19.77;6.75;;;20.80;48.20;;;;;;4546680;31;20124;-60
2022/03/02 12:37:56;;;;;;;12.93;6.68;;;20.80;48.60;;;;;;4546797;31;20123;-60
2022/03/02 12:40:26;;;;;;;17.52;6.43;;;20.80;49.10;;;;;;4545476;31;20149;-61
2022/03/02 12:42:54;;;;;;;13.15;6.80;;;20.80;49.20;;;;;;4547273;31;20139;-60
2022/03/02 12:45:20;;;;;;;12.60;6.95;;;20.80;49.40;;;;;;4545294;31;20147;-61
2022/03/02 12:47:47;;;;;;;12.38;6.90;;;20.80;49.50;;;;;;4547373;31;20174;-60
2022/03/02 12:50:16;;;;;;;16.50;6.53;;;20.80;49.60;;;;;;4545907;31;20147;-60
2022/03/02 12:52:43;;;;;;;13.82;6.95;;;20.80;49.70;;;;;;4546460;31;20182;-60